Time;durP1;ratioP1;P1;durP2;ratioP2;P2;SDS_P1;SDS_P2;PMS_P1;PMS_P2;Temp;Humidity;BMP_temperature;BMP_pressure;BME280_temperature;BME280_humidity;BME280_pressure;Samples;Min_cycle;Max_cycle;Signal;HPM_P1;HPM_P2
2023/01/29 00:01:59;;;;;;;19.83;11.97;;;;;;;0.47;100.00;94713.81;6274336;22;20549;-78
2023/01/29 00:04:25;;;;;;;21.40;12.17;;;;;;;0.51;100.00;94716.88;6271727;22;20995;-78
2023/01/29 00:06:52;;;;;;;21.23;11.83;;;;;;;0.56;100.00;94717.19;6272166;22;20217;-78
2023/01/29 00:09:20;;;;;;;18.47;11.03;;;;;;;0.56;100.00;94720.56;6274135;22;20174;-78
2023/01/29 00:11:47;;;;;;;19.07;10.90;;;;;;;0.45;100.00;94725.16;6271281;22;20198;-82
2023/01/29 00:14:14;;;;;;;18.60;11.77;;;;;;;0.37;100.00;94720.84;6272279;22;20652;-78
2023/01/29 00:16:41;;;;;;;20.20;12.30;;;;;;;0.37;100.00;94723.38;6274898;22;20188;-76
2023/01/29 00:19:08;;;;;;;20.97;12.03;;;;;;;0.28;100.00;94720.94;6272451;22;20153;-80
2023/01/29 00:21:36;;;;;;;22.27;12.60;;;;;;;0.27;100.00;94730.38;6271659;22;20169;-75
2023/01/29 00:24:02;;;;;;;19.07;11.20;;;;;;;0.24;100.00;94732.41;6273432;22;20182;-75
2023/01/29 00:26:33;;;;;;;20.17;11.20;;;;;;;0.19;100.00;94726.97;6270900;22;20165;-75
2023/01/29 00:29:02;;;;;;;17.40;11.00;;;;;;;0.15;100.00;94735.88;6270455;22;20163;-75
2023/01/29 00:31:29;;;;;;;18.03;10.97;;;;;;;0.10;100.00;94731.25;6272855;22;20244;-76
2023/01/29 00:33:56;;;;;;;18.93;11.20;;;;;;;0.07;100.00;94736.66;6271145;22;20541;-76
2023/01/29 00:36:23;;;;;;;20.83;11.30;;;;;;;0.12;100.00;94731.88;6271192;22;20173;-75
2023/01/29 00:38:57;;;;;;;20.23;11.33;;;;;;;0.15;100.00;94731.56;6273078;22;20201;-75
2023/01/29 00:47:00;;;;;;;23.13;12.17;;;;;;;0.17;100.00;94739.09;6271839;22;20503;-77
2023/01/29 00:49:29;;;;;;;21.23;12.27;;;;;;;0.17;100.00;94729.69;6273336;22;20174;-76
2023/01/29 00:54:46;;;;;;;19.67;11.67;;;;;;;0.04;100.00;94736.97;6239221;22;20165;-77
2023/01/29 00:57:24;;;;;;;22.57;11.93;;;;;;;-0.06;100.00;94734.50;6273241;22;20175;-77
2023/01/29 00:59:57;;;;;;;20.93;12.17;;;;;;;-0.05;100.00;94728.44;6269666;22;20187;-76
2023/01/29 01:05:26;;;;;;;18.07;11.07;;;;;;;-0.08;100.00;94741.53;6271681;22;20160;-76
2023/01/29 01:07:55;;;;;;;18.73;11.00;;;;;;;-0.08;100.00;94726.19;6270172;22;20542;-77
2023/01/29 01:10:30;;;;;;;21.87;11.60;;;;;;;-0.01;100.00;94728.97;6269635;22;20192;-76
2023/01/29 01:13:03;;;;;;;22.30;11.23;;;;;;;0.09;100.00;94732.19;6270484;22;20210;-77
2023/01/29 01:15:38;;;;;;;19.30;10.20;;;;;;;0.03;100.00;94729.47;6273124;22;20600;-76
2023/01/29 01:18:07;;;;;;;19.70;10.70;;;;;;;0.05;100.00;94720.69;6270707;22;20218;-76
2023/01/29 01:20:36;;;;;;;17.53;10.43;;;;;;;-0.23;100.00;94711.59;6271667;22;20548;-77
2023/01/29 01:23:04;;;;;;;17.30;10.03;;;;;;;-0.06;100.00;94723.50;6269245;22;20185;-80
2023/01/29 01:25:31;;;;;;;16.43;10.20;;;;;;;-0.10;100.00;94723.00;6268811;22;20712;-79
2023/01/29 01:27:59;;;;;;;19.43;11.00;;;;;;;0.00;100.00;94733.13;6270601;22;20561;-79
2023/01/29 01:30:26;;;;;;;18.83;9.60;;;;;;;0.00;100.00;94723.69;6273483;22;20197;-80
2023/01/29 01:32:55;;;;;;;16.77;9.93;;;;;;;-0.06;100.00;94731.94;6272143;22;20169;-76
2023/01/29 01:35:21;;;;;;;17.63;9.93;;;;;;;-0.05;100.00;94728.44;6270849;22;20176;-76
2023/01/29 01:37:48;;;;;;;18.67;9.97;;;;;;;-0.01;100.00;94734.88;6273097;22;20214;-79
2023/01/29 01:40:17;;;;;;;15.03;9.33;;;;;;;-0.02;100.00;94735.81;6271452;22;20173;-78
2023/01/29 01:42:44;;;;;;;16.13;9.80;;;;;;;0.04;100.00;94731.84;6270158;22;20165;-78
2023/01/29 01:45:21;;;;;;;18.67;10.60;;;;;;;0.05;100.00;94735.22;6273038;22;20536;-76
2023/01/29 01:47:52;;;;;;;17.07;10.33;;;;;;;0.07;100.00;94728.19;6271680;22;20191;-77
2023/01/29 01:50:23;;;;;;;15.80;9.73;;;;;;;0.00;100.00;94728.00;6270515;22;20188;-78
2023/01/29 01:52:53;;;;;;;15.93;8.67;;;;;;;-0.18;100.00;94730.63;6267885;22;20165;-78
2023/01/29 01:55:23;;;;;;;16.73;8.50;;;;;;;-0.28;100.00;94737.56;6271715;22;20230;-78
2023/01/29 01:57:54;;;;;;;14.53;8.47;;;;;;;-0.22;100.00;94743.81;6269812;22;20164;-78
2023/01/29 02:00:24;;;;;;;18.50;9.23;;;;;;;-0.41;100.00;94739.72;6271184;22;20153;-78
2023/01/29 02:11:13;;;;;;;16.90;9.80;;;;;;;-0.54;100.00;94746.97;6271867;22;20180;-79
2023/01/29 02:13:41;;;;;;;16.37;9.27;;;;;;;-0.44;100.00;94741.78;6272425;22;20497;-79
2023/01/29 02:16:08;;;;;;;16.50;9.10;;;;;;;-0.49;100.00;94737.09;6270817;22;20226;-77
2023/01/29 02:18:36;;;;;;;18.67;9.57;;;;;;;-0.44;100.00;94745.13;6271295;22;20208;-75
2023/01/29 02:21:48;;;;;;;17.07;10.00;;;;;;;-0.49;100.00;94742.19;6272091;22;20192;-76
2023/01/29 02:24:47;;;;;;;18.43;10.10;;;;;;;-0.45;100.00;94747.81;6270514;22;20165;-76
2023/01/29 02:27:19;;;;;;;19.13;10.30;;;;;;;-0.39;100.00;94742.94;6245852;22;20168;-76
2023/01/29 02:29:58;;;;;;;17.03;9.80;;;;;;;-0.39;100.00;94749.78;6270678;22;20157;-76
2023/01/29 02:32:34;;;;;;;15.53;10.07;;;;;;;-0.36;100.00;94757.13;6272729;22;20205;-76
2023/01/29 02:35:30;;;;;;;16.53;9.80;;;;;;;-0.33;100.00;94755.09;6269774;22;20588;-76
2023/01/29 02:38:09;;;;;;;14.97;9.17;;;;;;;-0.33;100.00;94757.66;6270666;22;20813;-76
2023/01/29 02:40:41;;;;;;;18.10;10.20;;;;;;;-0.32;100.00;94753.34;6271046;22;20150;-77
2023/01/29 02:43:18;;;;;;;19.23;10.57;;;;;;;-0.45;100.00;94761.38;6271907;22;20170;-76
2023/01/29 02:45:53;;;;;;;15.17;9.00;;;;;;;-0.40;100.00;94759.19;6270857;22;20681;-76
2023/01/29 02:48:23;;;;;;;15.97;10.20;;;;;;;-0.27;100.00;94766.47;6271376;22;20184;-76
2023/01/29 02:50:58;;;;;;;17.33;9.73;;;;;;;-0.24;100.00;94768.72;6272098;22;20184;-76
2023/01/29 02:53:32;;;;;;;19.47;12.00;;;;;;;-0.19;100.00;94769.06;6270191;22;20164;-76
2023/01/29 02:56:05;;;;;;;19.50;11.57;;;;;;;-0.10;100.00;94765.59;6272406;22;20160;-80
2023/01/29 02:58:38;;;;;;;19.10;11.90;;;;;;;-0.06;100.00;94764.38;6273605;22;20165;-79
2023/01/29 03:01:12;;;;;;;17.33;11.17;;;;;;;-0.10;100.00;94748.53;6272342;22;20397;-80
2023/01/29 03:03:43;;;;;;;22.07;12.13;;;;;;;0.06;100.00;94763.13;6272744;22;20153;-82
2023/01/29 03:06:19;;;;;;;25.23;13.93;;;;;;;0.14;100.00;94770.06;6272802;22;20529;-80
2023/01/29 03:08:52;;;;;;;22.43;12.27;;;;;;;0.15;100.00;94764.78;6273324;22;20161;-76
2023/01/29 03:11:21;;;;;;;18.43;12.40;;;;;;;0.13;100.00;94769.25;6272015;22;20240;-77
2023/01/29 03:13:52;;;;;;;19.53;11.57;;;;;;;0.21;100.00;94771.03;6272835;22;20172;-76
2023/01/29 03:16:25;;;;;;;17.60;11.03;;;;;;;0.04;100.00;94754.03;6274195;22;20164;-75
2023/01/29 03:18:56;;;;;;;19.30;11.50;;;;;;;0.14;100.00;94770.06;6271659;22;20204;-77
2023/01/29 03:32:39;;;;;;;16.73;9.87;;;;;;;0.12;100.00;94772.75;6272817;22;20180;-77
2023/01/29 03:35:08;;;;;;;19.23;11.00;;;;;;;0.03;100.00;94755.78;6274274;22;20236;-77
2023/01/29 03:37:39;;;;;;;19.30;11.10;;;;;;;0.15;100.00;94775.00;6272047;22;20175;-79
2023/01/29 03:40:08;;;;;;;17.67;10.57;;;;;;;0.24;100.00;94776.66;6271430;22;20157;-77
2023/01/29 03:42:49;;;;;;;13.93;8.60;;;;;;;0.29;100.00;94771.09;6274436;22;20164;-79
2023/01/29 03:45:21;;;;;;;17.70;9.50;;;;;;;0.25;100.00;94777.47;6273032;22;20160;-77
2023/01/29 03:47:54;;;;;;;13.07;8.87;;;;;;;0.12;100.00;94769.41;6271933;22;20205;-76
2023/01/29 03:50:34;;;;;;;17.13;9.87;;;;;;;0.08;100.00;94775.78;6272472;22;20581;-79
2023/01/29 03:53:08;;;;;;;19.20;10.27;;;;;;;0.07;100.00;94771.59;6273759;22;20165;-76
2023/01/29 03:55:41;;;;;;;16.73;10.10;;;;;;;0.11;100.00;94776.28;6271628;22;20157;-76
2023/01/29 03:58:20;;;;;;;14.20;9.77;;;;;;;0.10;100.00;94771.31;6270690;22;20234;-75
2023/01/29 04:00:54;;;;;;;13.03;8.30;;;;;;;0.00;100.00;94767.09;6274465;22;20170;-76
2023/01/29 04:03:29;;;;;;;14.67;9.33;;;;;;;0.08;100.00;94775.78;6271877;22;20157;-75
2023/01/29 04:06:08;;;;;;;14.03;8.60;;;;;;;0.00;100.00;94761.22;6272641;22;20169;-77
2023/01/29 04:08:41;;;;;;;12.57;7.90;;;;;;;0.03;100.00;94762.66;6272452;22;20228;-77
2023/01/29 04:11:13;;;;;;;11.60;7.57;;;;;;;-0.01;100.00;94773.19;6273450;22;20177;-77
2023/01/29 04:13:40;;;;;;;12.63;8.13;;;;;;;0.02;100.00;94784.84;6272743;22;20160;-78
2023/01/29 04:16:13;;;;;;;14.70;8.97;;;;;;;-0.01;100.00;94783.41;6271365;22;20183;-78
2023/01/29 04:18:44;;;;;;;13.57;9.23;;;;;;;-0.24;100.00;94781.47;6272706;22;20197;-77
2023/01/29 04:21:11;;;;;;;13.73;8.73;;;;;;;-0.32;100.00;94789.09;6272220;22;20159;-78
2023/01/29 04:23:38;;;;;;;11.60;7.60;;;;;;;-0.39;100.00;94782.97;6271804;22;20256;-78
2023/01/29 04:26:22;;;;;;;13.63;7.70;;;;;;;-0.34;100.00;94788.41;6273328;22;20231;-78
2023/01/29 04:29:00;;;;;;;13.67;8.23;;;;;;;-0.42;100.00;94796.81;6271884;22;20164;-79
2023/01/29 04:31:34;;;;;;;15.73;9.07;;;;;;;-0.34;100.00;94786.66;6271030;22;20177;-79
2023/01/29 04:34:13;;;;;;;17.23;10.13;;;;;;;-0.24;100.00;94796.78;6274096;22;20219;-79
2023/01/29 04:36:50;;;;;;;15.37;9.00;;;;;;;-0.27;100.00;94794.53;6273620;22;20157;-79
2023/01/29 04:39:21;;;;;;;13.63;8.03;;;;;;;-0.29;100.00;94796.44;6270874;22;20145;-78
2023/01/29 04:41:53;;;;;;;13.67;8.30;;;;;;;-0.36;100.00;94796.22;6271835;22;20157;-76
2023/01/29 04:44:28;;;;;;;14.53;8.33;;;;;;;-0.27;100.00;94790.25;6272774;22;20165;-76
2023/01/29 04:47:05;;;;;;;11.77;8.07;;;;;;;-0.23;100.00;94793.31;6270580;22;20157;-77
2023/01/29 04:49:40;;;;;;;12.47;7.63;;;;;;;-0.18;100.00;94791.91;6271249;22;20164;-77
2023/01/29 04:52:12;;;;;;;13.30;8.37;;;;;;;-0.13;100.00;94789.69;6273796;22;20200;-77
2023/01/29 04:54:54;;;;;;;14.90;8.87;;;;;;;-0.19;100.00;94795.41;6271169;22;20161;-77
2023/01/29 04:57:26;;;;;;;11.63;7.43;;;;;;;-0.20;100.00;94793.78;6271884;22;20164;-77
2023/01/29 05:00:00;;;;;;;11.57;7.53;;;;;;;-0.19;100.00;94800.50;6272472;22;20160;-76
2023/01/29 05:02:27;;;;;;;12.23;7.77;;;;;;;-0.32;100.00;94805.22;6272422;22;20882;-77
2023/01/29 05:04:58;;;;;;;14.00;8.07;;;;;;;-0.32;100.00;94791.63;6270871;22;20172;-79
2023/01/29 05:07:28;;;;;;;14.07;8.23;;;;;;;-0.32;100.00;94789.91;6272434;22;20199;-81
2023/01/29 05:09:56;;;;;;;14.23;8.83;;;;;;;-0.24;100.00;94804.47;6274923;22;20150;-81
2023/01/29 05:12:27;;;;;;;12.80;8.50;;;;;;;-0.25;100.00;94796.00;6272862;22;20266;-80
2023/01/29 05:14:56;;;;;;;12.60;8.50;;;;;;;-0.22;100.00;94802.53;6271524;22;20239;-79
2023/01/29 05:17:23;;;;;;;13.40;7.83;;;;;;;-0.27;100.00;94807.31;6273696;22;20229;-80
2023/01/29 05:19:50;;;;;;;13.20;8.37;;;;;;;-0.40;100.00;94812.78;6272212;22;20259;-77
2023/01/29 05:22:21;;;;;;;13.73;9.17;;;;;;;-0.54;100.00;94803.09;6271191;22;20175;-77
2023/01/29 05:24:48;;;;;;;16.87;9.50;;;;;;;-0.50;100.00;94817.19;6274021;22;20211;-78
2023/01/29 05:30:02;;;;;;;20.40;11.43;;;;;;;-0.40;100.00;94806.88;6271090;22;20232;-78
2023/01/29 05:32:29;;;;;;;18.70;9.70;;;;;;;-0.48;100.00;94809.34;6272877;22;20283;-78
2023/01/29 05:34:56;;;;;;;19.80;9.57;;;;;;;-0.41;100.00;94818.03;6271436;22;20217;-78
2023/01/29 05:37:24;;;;;;;19.10;10.10;;;;;;;-0.37;100.00;94815.03;6271996;22;20489;-78
2023/01/29 05:39:51;;;;;;;16.97;10.00;;;;;;;-0.30;100.00;94815.25;6273730;22;20165;-78
2023/01/29 05:42:17;;;;;;;22.23;11.63;;;;;;;-0.24;100.00;94824.88;6270843;22;20166;-78
2023/01/29 05:44:44;;;;;;;16.47;10.60;;;;;;;-0.22;100.00;94821.22;6271258;22;20177;-77
2023/01/29 05:47:11;;;;;;;21.27;10.07;;;;;;;-0.14;100.00;94828.13;6273372;22;20491;-77
2023/01/29 05:49:38;;;;;;;19.50;10.07;;;;;;;-0.14;100.00;94833.25;6271059;22;20188;-76
2023/01/29 05:52:05;;;;;;;14.03;9.13;;;;;;;-0.17;100.00;94833.53;6270956;22;20196;-78
2023/01/29 05:54:33;;;;;;;16.90;9.77;;;;;;;-0.18;100.00;94827.66;6272761;22;20169;-78
2023/01/29 05:57:00;;;;;;;15.97;9.50;;;;;;;-0.16;100.00;94828.28;6270580;22;20173;-78
2023/01/29 05:59:27;;;;;;;17.07;10.60;;;;;;;-0.18;100.00;94821.72;6271598;22;20173;-78
2023/01/29 06:01:53;;;;;;;15.13;10.00;;;;;;;-0.17;100.00;94830.97;6273250;22;20177;-79
2023/01/29 06:04:20;;;;;;;18.43;10.90;;;;;;;-0.15;100.00;94840.13;6270837;22;20484;-78
2023/01/29 06:06:47;;;;;;;19.43;11.00;;;;;;;-0.18;100.00;94835.31;6269983;22;20503;-77
2023/01/29 06:09:14;;;;;;;22.43;11.93;;;;;;;-0.18;100.00;94842.97;6272253;22;20549;-78
2023/01/29 06:11:42;;;;;;;22.50;11.43;;;;;;;-0.24;100.00;94847.84;6270362;22;20197;-79
2023/01/29 06:14:09;;;;;;;23.63;10.90;;;;;;;-0.19;100.00;94845.66;6270266;22;20168;-79
2023/01/29 06:16:35;;;;;;;21.83;11.37;;;;;;;-0.30;100.00;94846.69;6272629;22;20165;-76
2023/01/29 06:19:02;;;;;;;25.00;12.53;;;;;;;-0.36;100.00;94849.03;6270666;22;20207;-76
2023/01/29 06:21:29;;;;;;;23.73;12.77;;;;;;;-0.42;100.00;94852.97;6271052;22;20173;-74
2023/01/29 06:23:56;;;;;;;25.70;12.97;;;;;;;-0.40;100.00;94863.00;6271625;22;20164;-74
2023/01/29 06:26:23;;;;;;;20.10;11.07;;;;;;;-0.34;100.00;94859.88;6269863;22;20169;-73
2023/01/29 06:28:51;;;;;;;22.60;11.20;;;;;;;-0.38;100.00;94869.59;6269881;22;20548;-73
2023/01/29 06:31:30;;;;;;;22.50;11.93;;;;;;;-0.40;100.00;94868.94;6272323;22;20656;-73
2023/01/29 06:33:57;;;;;;;25.50;12.23;;;;;;;-0.49;100.00;94871.56;6271704;22;20724;-74
2023/01/29 06:36:24;;;;;;;25.67;13.77;;;;;;;-0.50;100.00;94870.75;6269746;22;20169;-74
2023/01/29 06:38:51;;;;;;;24.53;12.33;;;;;;;-0.45;100.00;94878.78;6271308;22;20173;-72
2023/01/29 06:41:21;;;;;;;24.80;13.47;;;;;;;-0.53;100.00;94876.16;6271902;22;20611;-75
2023/01/29 06:43:48;;;;;;;23.63;12.93;;;;;;;-0.53;100.00;94873.59;6271907;22;20239;-74
2023/01/29 06:46:16;;;;;;;27.40;14.47;;;;;;;-0.40;100.00;94881.69;6272859;22;20157;-74
2023/01/29 06:48:43;;;;;;;27.57;15.53;;;;;;;-0.25;100.00;94876.88;6274050;22;20642;-74
2023/01/29 06:51:11;;;;;;;27.27;15.57;;;;;;;-0.30;100.00;94868.88;6272679;22;20179;-73
2023/01/29 06:53:39;;;;;;;31.53;17.87;;;;;;;-0.21;100.00;94880.75;6272703;22;20193;-74
2023/01/29 06:56:08;;;;;;;33.00;18.00;;;;;;;-0.16;100.00;94879.34;6274116;22;20172;-74
2023/01/29 06:58:37;;;;;;;32.00;17.97;;;;;;;-0.05;100.00;94897.00;6271805;22;20223;-73
2023/01/29 07:01:05;;;;;;;28.33;17.80;;;;;;;-0.01;100.00;94888.09;6245819;22;20562;-74
2023/01/29 07:03:34;;;;;;;37.43;20.30;;;;;;;0.03;100.00;94888.59;6274537;22;20504;-75
2023/01/29 07:06:00;;;;;;;41.43;20.53;;;;;;;0.07;100.00;94895.03;6272485;22;20161;-75
2023/01/29 07:08:27;;;;;;;30.53;17.00;;;;;;;0.02;100.00;94889.56;6272169;22;20169;-75
2023/01/29 07:10:58;;;;;;;23.40;14.40;;;;;;;-0.11;100.00;94902.69;6274031;22;20190;-75
2023/01/29 07:13:25;;;;;;;23.93;14.53;;;;;;;-0.27;100.00;94883.88;6272526;22;20246;-74
2023/01/29 07:15:52;;;;;;;23.50;14.50;;;;;;;-0.08;100.00;94907.50;6271995;22;20169;-73
2023/01/29 07:18:19;;;;;;;26.27;14.73;;;;;;;0.00;100.00;94904.25;6273874;22;20192;-74
2023/01/29 07:20:47;;;;;;;21.80;13.03;;;;;;;-0.08;100.00;94912.63;6272301;22;20172;-73
2023/01/29 07:23:16;;;;;;;22.30;13.00;;;;;;;0.02;100.00;94920.22;6272594;22;20509;-74
2023/01/29 07:25:43;;;;;;;25.67;14.63;;;;;;;0.05;100.00;94914.00;6274114;22;20172;-72
2023/01/29 07:28:10;;;;;;;36.17;20.37;;;;;;;0.01;100.00;94908.38;6271255;22;20585;-74
2023/01/29 07:30:37;;;;;;;42.97;22.77;;;;;;;0.00;100.00;94917.00;6272303;22;20223;-74
2023/01/29 07:33:10;;;;;;;34.90;19.37;;;;;;;-0.15;100.00;94916.72;6273751;22;20266;-74
2023/01/29 07:35:39;;;;;;;28.33;16.30;;;;;;;-0.09;100.00;94920.44;6270531;22;20244;-74
2023/01/29 07:38:08;;;;;;;30.00;16.13;;;;;;;-0.19;100.00;94919.69;6270079;22;20168;-75
2023/01/29 07:40:35;;;;;;;28.20;15.57;;;;;;;-0.11;100.00;94915.47;6273528;22;20164;-74
2023/01/29 07:43:03;;;;;;;29.87;16.83;;;;;;;-0.03;100.00;94925.75;6271438;22;20165;-74
2023/01/29 07:45:30;;;;;;;29.17;16.37;;;;;;;-0.02;100.00;94918.88;6271607;22;20169;-73
2023/01/29 07:47:57;;;;;;;23.97;13.70;;;;;;;0.01;100.00;94923.69;6273501;22;20179;-78
2023/01/29 07:50:25;;;;;;;23.67;14.07;;;;;;;0.06;100.00;94928.38;6272020;22;20274;-81
2023/01/29 07:52:54;;;;;;;22.70;14.00;;;;;;;0.14;100.00;94925.91;6272619;22;20193;-78
2023/01/29 07:55:23;;;;;;;23.10;13.00;;;;;;;0.13;100.00;94925.09;6273518;22;20222;-78
2023/01/29 07:57:55;;;;;;;22.93;14.10;;;;;;;0.18;100.00;94932.28;6272712;22;20635;-79
2023/01/29 08:00:22;;;;;;;23.23;14.30;;;;;;;0.20;100.00;94933.78;6272573;22;20584;-80
2023/01/29 08:02:49;;;;;;;28.57;13.73;;;;;;;0.10;100.00;94927.94;6274201;22;20168;-80
2023/01/29 08:05:16;;;;;;;22.27;12.97;;;;;;;0.13;100.00;94937.84;6272539;22;20169;-79
2023/01/29 08:07:43;;;;;;;30.23;16.13;;;;;;;0.18;100.00;94937.41;6272605;22;20172;-80
2023/01/29 08:10:11;;;;;;;31.57;17.67;;;;;;;0.22;100.00;94934.44;6273247;22;20504;-80
2023/01/29 08:12:39;;;;;;;26.63;15.73;;;;;;;0.21;100.00;94939.66;6272145;22;20193;-79
2023/01/29 08:15:06;;;;;;;25.23;15.60;;;;;;;0.23;100.00;94942.91;6271902;22;20174;-79
2023/01/29 08:17:33;;;;;;;28.47;15.40;;;;;;;0.08;100.00;94946.91;6273912;22;20193;-80
2023/01/29 08:20:00;;;;;;;33.07;15.97;;;;;;;0.15;100.00;94951.28;6272349;22;20179;-80
2023/01/29 08:22:27;;;;;;;30.70;15.80;;;;;;;0.12;100.00;94936.25;6271743;22;20169;-80
2023/01/29 08:24:53;;;;;;;27.63;15.00;;;;;;;0.13;100.00;94948.06;6272235;22;20169;-79
2023/01/29 08:27:20;;;;;;;25.87;15.00;;;;;;;0.22;100.00;94948.94;6272346;22;20163;-78
2023/01/29 08:29:49;;;;;;;22.43;12.87;;;;;;;0.32;100.00;94947.91;6272669;22;20199;-78
2023/01/29 08:32:15;;;;;;;22.03;12.20;;;;;;;0.20;100.00;94945.75;6273579;22;20479;-78
2023/01/29 08:34:42;;;;;;;23.83;13.93;;;;;;;0.23;100.00;94955.66;6272678;22;20166;-78
2023/01/29 08:37:09;;;;;;;21.00;12.70;;;;;;;0.31;100.00;94958.28;6271552;22;20184;-80
2023/01/29 08:39:36;;;;;;;26.23;13.63;;;;;;;0.26;100.00;94960.50;6273477;22;20173;-77
2023/01/29 08:42:02;;;;;;;27.47;15.20;;;;;;;0.20;100.00;94958.53;6272217;22;20229;-76
2023/01/29 08:44:29;;;;;;;28.00;15.60;;;;;;;0.23;100.00;94953.13;6271425;22;20181;-77
2023/01/29 08:46:57;;;;;;;32.57;18.23;;;;;;;0.30;100.00;94962.59;6273282;22;20169;-76
2023/01/29 08:49:24;;;;;;;32.93;18.40;;;;;;;0.49;100.00;94972.63;6271253;22;20169;-77
2023/01/29 08:51:52;;;;;;;34.00;19.27;;;;;;;0.47;100.00;94966.88;6270877;22;20173;-76
2023/01/29 08:54:19;;;;;;;31.10;18.13;;;;;;;0.27;100.00;94972.28;6272841;22;20266;-76
2023/01/29 08:56:55;;;;;;;31.20;18.07;;;;;;;0.39;100.00;94979.59;6271944;22;20172;-76
2023/01/29 08:59:22;;;;;;;32.87;19.63;;;;;;;0.41;100.00;94970.00;6270780;22;20161;-76
2023/01/29 09:01:48;;;;;;;40.57;22.77;;;;;;;0.39;100.00;94981.34;6272126;22;20221;-76
2023/01/29 09:04:17;;;;;;;29.93;18.37;;;;;;;0.51;100.00;94985.28;6270758;22;20174;-76
2023/01/29 09:06:43;;;;;;;25.97;15.87;;;;;;;0.44;100.00;94987.63;6269756;22;20769;-76
2023/01/29 09:09:11;;;;;;;24.07;14.23;;;;;;;0.37;100.00;94981.50;6271527;22;20169;-77
2023/01/29 09:11:39;;;;;;;23.17;13.43;;;;;;;0.30;100.00;94983.03;6271884;22;20164;-76
2023/01/29 09:14:06;;;;;;;26.73;15.03;;;;;;;0.28;100.00;94984.13;6270595;22;20243;-75
2023/01/29 09:16:32;;;;;;;25.80;15.30;;;;;;;0.43;100.00;94977.56;6272106;22;20508;-76
2023/01/29 09:18:59;;;;;;;29.60;17.80;;;;;;;0.46;100.00;94974.69;6271749;22;20168;-77
2023/01/29 09:21:27;;;;;;;27.77;15.53;;;;;;;0.49;100.00;94976.97;6270657;22;20193;-77
2023/01/29 09:23:54;;;;;;;25.70;14.53;;;;;;;0.39;100.00;94973.69;6271998;22;20169;-77
2023/01/29 09:26:23;;;;;;;30.13;16.40;;;;;;;0.48;100.00;94980.47;6271397;22;20183;-77
2023/01/29 09:28:50;;;;;;;31.87;16.60;;;;;;;0.53;100.00;94976.50;6271019;22;20172;-76
2023/01/29 09:31:16;;;;;;;26.73;15.53;;;;;;;0.38;100.00;94959.28;6271436;22;20242;-76
2023/01/29 09:33:43;;;;;;;23.07;13.63;;;;;;;0.58;100.00;94978.59;6270650;22;20252;-76
2023/01/29 09:36:10;;;;;;;24.23;13.60;;;;;;;0.53;100.00;94973.94;6270399;22;20237;-75
2023/01/29 09:38:38;;;;;;;28.57;16.30;;;;;;;0.58;100.00;94968.38;6271160;22;20173;-77
2023/01/29 09:41:15;;;;;;;25.63;14.60;;;;;;;0.55;100.00;94959.25;6272183;22;20171;-77
2023/01/29 09:43:47;;;;;;;23.37;13.40;;;;;;;0.59;100.00;94962.31;6271528;22;20164;-76
2023/01/29 09:46:20;;;;;;;23.43;14.10;;;;;;;0.52;100.00;94959.56;6270602;22;20161;-76
2023/01/29 09:48:52;;;;;;;30.20;16.03;;;;;;;0.61;100.00;94960.41;6272777;22;20151;-77
2023/01/29 09:51:27;;;;;;;31.60;17.57;;;;;;;0.57;100.00;94961.69;6270756;22;20157;-76
2023/01/29 09:54:04;;;;;;;27.80;15.50;;;;;;;0.51;100.00;94944.38;6270571;22;20502;-77
2023/01/29 09:56:32;;;;;;;35.70;17.60;;;;;;;0.55;100.00;94963.56;6272631;22;20494;-77
2023/01/29 09:58:59;;;;;;;27.37;14.70;;;;;;;0.65;100.00;94959.16;6270833;22;20165;-76
2023/01/29 10:01:36;;;;;;;30.13;15.30;;;;;;;0.56;100.00;94960.06;6270592;22;20176;-76
2023/01/29 10:04:37;;;;;;;30.10;16.87;;;;;;;0.66;100.00;94962.53;6272525;22;20583;-77
2023/01/29 10:07:22;;;;;;;26.50;15.50;;;;;;;0.46;100.00;94949.91;6272442;22;20220;-76
2023/01/29 10:10:09;;;;;;;27.60;15.20;;;;;;;0.32;100.00;94952.19;6270540;22;20153;-78
2023/01/29 10:12:51;;;;;;;28.97;15.67;;;;;;;0.22;100.00;94951.50;6271210;22;20165;-76
2023/01/29 10:15:30;;;;;;;30.33;16.97;;;;;;;0.22;100.00;94942.09;6271538;22;20222;-77
2023/01/29 10:18:12;;;;;;;29.70;15.63;;;;;;;0.23;100.00;94938.56;6273383;22;20283;-79
2023/01/29 10:20:55;;;;;;;30.43;15.40;;;;;;;0.05;100.00;94929.31;6272654;22;20161;-78
2023/01/29 10:23:27;;;;;;;30.37;16.03;;;;;;;0.18;100.00;94945.06;6272621;22;20208;-77
2023/01/29 10:25:55;;;;;;;30.43;15.23;;;;;;;0.15;100.00;94946.16;6274754;22;20157;-76
2023/01/29 10:28:28;;;;;;;36.50;19.43;;;;;;;0.15;100.00;94940.25;6272012;22;20612;-77
2023/01/29 10:31:00;;;;;;;39.27;22.50;;;;;;;0.20;100.00;94938.88;6271709;22;20511;-78
2023/01/29 10:33:32;;;;;;;32.50;16.83;;;;;;;0.29;100.00;94930.31;6273764;22;20180;-77
2023/01/29 10:36:03;;;;;;;34.07;18.47;;;;;;;0.36;100.00;94933.88;6273565;22;20153;-78
2023/01/29 10:38:38;;;;;;;34.53;17.13;;;;;;;0.41;100.00;94935.97;6272559;22;20172;-78
2023/01/29 10:41:24;;;;;;;31.63;17.30;;;;;;;0.36;100.00;94933.88;6271777;22;20170;-76
2023/01/29 10:44:01;;;;;;;27.57;14.63;;;;;;;0.43;100.00;94934.88;6274781;22;20154;-77
2023/01/29 10:46:50;;;;;;;26.77;14.70;;;;;;;0.41;100.00;94928.31;6272188;22;20217;-77
2023/01/29 10:49:37;;;;;;;31.43;16.50;;;;;;;0.26;100.00;94932.38;6271785;22;20161;-78
2023/01/29 10:52:18;;;;;;;34.17;17.03;;;;;;;0.20;100.00;94935.53;6272756;22;20240;-77
2023/01/29 10:55:01;;;;;;;36.90;17.57;;;;;;;0.12;100.00;94927.78;6274085;22;20272;-78
2023/01/29 10:57:46;;;;;;;30.63;16.40;;;;;;;0.16;100.00;94926.53;6272548;22;20171;-77
2023/01/29 11:00:21;;;;;;;48.43;23.40;;;;;;;0.15;100.00;94937.69;6273002;22;20162;-76
2023/01/29 11:02:50;;;;;;;68.97;31.07;;;;;;;0.04;100.00;94918.31;6273458;22;20153;-77
2023/01/29 11:05:25;;;;;;;79.37;34.10;;;;;;;0.09;100.00;94920.44;6273481;22;20165;-77
2023/01/29 11:08:03;;;;;;;40.73;20.70;;;;;;;0.14;100.00;94916.47;6273108;22;20495;-77
2023/01/29 11:10:33;;;;;;;59.60;26.63;;;;;;;0.22;100.00;94916.53;6271319;22;20161;-78
2023/01/29 11:13:02;;;;;;;179.60;63.67;;;;;;;0.26;100.00;94909.38;6274865;22;20168;-77
2023/01/29 11:15:40;;;;;;;43.73;21.60;;;;;;;0.37;100.00;94914.25;6271979;22;20174;-77
2023/01/29 11:18:12;;;;;;;54.93;27.03;;;;;;;0.41;100.00;94911.22;6270726;22;20204;-77
2023/01/29 11:20:40;;;;;;;37.70;20.37;;;;;;;0.43;100.00;94911.09;6274213;22;20207;-78
2023/01/29 11:23:25;;;;;;;36.87;19.80;;;;;;;0.29;100.00;94893.75;6271943;22;20237;-76
2023/01/29 11:25:54;;;;;;;38.33;19.87;;;;;;;0.29;100.00;94899.66;6271611;22;20469;-75
2023/01/29 11:31:20;;;;;;;39.33;20.87;;;;;;;0.52;100.00;94908.44;5107301;27;20561;-76
2023/01/29 11:33:48;;;;;;;33.57;18.10;;;;;;;0.55;100.00;94897.91;5092490;28;20526;-76
2023/01/29 11:36:40;;;;;;;41.13;19.93;;;;;;;0.63;100.00;94889.50;5092048;28;20264;-76
2023/01/29 11:39:20;;;;;;;36.67;17.33;;;;;;;0.47;100.00;94892.75;5098551;28;20182;-80
2023/01/29 11:41:55;;;;;;;33.23;18.23;;;;;;;0.46;100.00;94878.34;5094378;28;20198;-81
2023/01/29 11:44:28;;;;;;;38.03;19.40;;;;;;;0.53;100.00;94871.69;5092624;28;20193;-79
2023/01/29 11:46:57;;;;;;;33.53;18.37;;;;;;;0.57;100.00;94882.44;5098498;28;20182;-79
2023/01/29 11:49:45;;;;;;;34.13;17.83;;;;;;;0.57;100.00;94879.88;5095269;28;20248;-80
2023/01/29 11:52:15;;;;;;;33.87;18.70;;;;;;;0.66;100.00;94878.97;5090286;28;20208;-81
2023/01/29 11:54:47;;;;;;;31.07;16.40;;;;;;;0.62;100.00;94869.97;5090216;28;20189;-80
2023/01/29 11:57:24;;;;;;;34.43;17.87;;;;;;;0.70;100.00;94875.13;5094224;28;20193;-80
2023/01/29 11:59:53;;;;;;;30.63;16.53;;;;;;;0.58;100.00;94874.59;5085763;28;20189;-79
2023/01/29 12:02:29;;;;;;;31.23;15.77;;;;;;;0.58;100.00;94871.22;5096047;28;20195;-80
2023/01/29 12:05:00;;;;;;;30.20;16.13;;;;;;;0.61;100.00;94873.47;5094221;28;20284;-79
2023/01/29 12:07:28;;;;;;;32.27;16.23;;;;;;;0.62;100.00;94854.63;5088036;28;20716;-80
2023/01/29 12:09:57;;;;;;;30.47;16.57;;;;;;;0.64;100.00;94860.41;5088695;28;20703;-79
2023/01/29 12:12:38;;;;;;;37.40;19.10;;;;;;;0.85;100.00;94862.56;5098803;28;20193;-79